Time,TemperatureF,DewpointF,PressureIn,WindDirection,WindDirectionDegrees,WindSpeedMPH,WindSpeedGustMPH,Humidity,HourlyPrecipIn,Conditions,Clouds,dailyrainin,SoftwareType,DateUTC
2013-09-04 00:03:00,59.7,52.8,30.26,WSW,258,1.2,1.2,78,0.00,CLR,FEW,0.00,WeatherDisplay:10.37,2013-09-03 23:03:00,
2013-09-04 00:08:00,59.7,52.8,30.26,WSW,258,1.2,1.2,78,0.00,CLR,FEW,0.00,WeatherDisplay:10.37,2013-09-03 23:08:00,
2013-09-04 00:13:00,59.7,52.8,30.26,WSW,258,0.0,0.8,78,0.00,CLR,FEW,0.00,WeatherDisplay:10.37,2013-09-03 23:13:00,
2013-09-04 00:18:00,59.2,52.7,30.25,WSW,258,1.2,1.2,79,0.00,CLR,FEW,0.00,WeatherDisplay:10.37,2013-09-03 23:18:00,
2013-09-04 00:23:00,59.0,52.8,30.25,West,280,1.2,1.2,80,0.00,CLR,FEW,0.00,WeatherDisplay:10.37,2013-09-03 23:23:00,
2013-09-04 00:28:00,58.6,52.5,30.25,ESE,122,0.0,0.8,80,0.00,CLR,FEW,0.00,WeatherDisplay:10.37,2013-09-03 23:28:00,
2013-09-04 00:33:00,58.6,52.5,30.25,WSW,258,0.0,0.4,80,0.00,CLR,FEW,0.00,WeatherDisplay:10.37,2013-09-03 23:33:00,
2013-09-04 00:38:00,58.5,52.3,30.25,WSW,258,1.7,1.7,80,0.00,CLR,FEW,0.00,WeatherDisplay:10.37,2013-09-03 23:38:00,
2013-09-04 00:43:00,58.3,52.1,30.25,WSW,258,1.2,1.2,80,0.00,CLR,FEW,0.00,WeatherDisplay:10.37,2013-09-03 23:43:00,
2013-09-04 00:48:00,58.1,52.3,30.25,WNW,302,3.5,3.5,81,0.00,CLR,FEW,0.00,WeatherDisplay:10.37,2013-09-03 23:48:00,
2013-09-04 00:53:00,58.1,52.3,30.25,West,280,2.4,2.4,81,0.00,CLR,FEW,0.00,WeatherDisplay:10.37,2013-09-03 23:53:00,
2013-09-04 00:58:00,58.1,52.3,30.24,WSW,258,1.2,1.2,81,0.00,CLR,FEW,0.00,WeatherDisplay:10.37,2013-09-03 23:58:00,
2013-09-04 01:03:00,57.9,52.1,30.24,West,280,2.3,2.3,81,0.00,FEW,,0.00,WeatherDisplay:10.37,2013-09-04 00:03:00,
2013-09-04 01:08:00,57.7,51.9,30.24,WSW,258,2.3,2.3,81,0.00,FEW,,0.00,WeatherDisplay:10.37,2013-09-04 00:08:00,
2013-09-04 20:47:00,64.8,53.1,29.96,SSE,168,2.5,2.5,66,0.00,FEW,,0.00,WeatherDisplay:10.37,2013-09-04 19:47:00,
2013-09-04 20:48:00,64.9,53.7,30.02,WSW,258,0.0,1.2,67,0.00,FEW,,0.00,WeatherDisplay:10.37,2013-09-04 19:48:00,
2013-09-04 20:53:00,64.8,53.1,30.02,WSW,258,2.4,2.4,66,0.00,FEW,,0.00,WeatherDisplay:10.37,2013-09-04 19:53:00,
2013-09-04 20:58:00,64.6,53.0,30.03,SSE,168,3.5,3.5,66,0.00,FEW,,0.00,WeatherDisplay:10.37,2013-09-04 19:58:00,
2013-09-04 21:03:00,64.6,53.0,30.03,West,280,3.5,3.5,66,0.00,CLR,FEW,0.00,WeatherDisplay:10.37,2013-09-04 20:03:00,
2013-09-04 21:08:00,64.6,52.5,30.03,West,280,4.6,4.6,65,0.00,CLR,FEW,0.00,WeatherDisplay:10.37,2013-09-04 20:08:00,
2013-09-04 21:13:00,64.9,52.9,30.03,WSW,258,2.3,2.7,65,0.00,CLR,FEW,0.00,WeatherDisplay:10.37,2013-09-04 20:13:00,
2013-09-04 21:18:00,64.9,52.9,30.01,WSW,258,4.6,4.6,65,0.00,CLR,FEW,0.00,WeatherDisplay:10.37,2013-09-04 20:18:00,
2013-09-04 21:23:00,64.8,52.3,30.01,ESE,122,4.6,4.6,64,0.00,CLR,FEW,0.00,WeatherDisplay:10.37,2013-09-04 20:23:00,
2013-09-04 21:28:00,64.9,52.5,30.01,West,280,5.8,5.8,64,0.00,CLR,FEW,0.00,WeatherDisplay:10.37,2013-09-04 20:28:00,
2013-09-04 21:33:00,64.9,52.5,30.01,ESE,122,8.1,8.1,64,0.00,CLR,FEW,0.00,WeatherDisplay:10.37,2013-09-04 20:33:00,
2013-09-04 21:38:00,64.9,52.5,30.02,SE,145,5.8,5.8,64,0.00,CLR,FEW,0.00,WeatherDisplay:10.37,2013-09-04 20:38:00,
2013-09-04 21:43:00,64.8,52.3,30.02,WNW,302,3.5,3.5,64,0.00,CLR,FEW,0.00,WeatherDisplay:10.37,2013-09-04 20:43:00,
2013-09-04 21:48:00,64.9,52.5,30.02,ESE,122,8.1,8.1,64,0.00,CLR,FEW,0.00,WeatherDisplay:10.37,2013-09-04 20:48:00,
2013-09-04 21:54:00,64.9,52.5,30.02,West,280,2.5,3.5,64,0.00,CLR,FEW,0.00,WeatherDisplay:10.37,2013-09-04 20:54:00,
2013-09-04 21:59:00,64.9,52.5,30.01,WSW,258,3.5,3.5,64,0.00,CLR,FEW,0.00,WeatherDisplay:10.37,2013-09-04 20:59:00,
2013-09-04 22:04:00,64.6,52.1,30.01,WSW,258,3.5,3.5,64,0.00,BKN,FEW,0.00,WeatherDisplay:10.37,2013-09-04 21:04:00,
2013-09-04 22:09:00,64.6,52.5,30.01,ESE,122,5.8,5.8,65,0.00,BKN,FEW,0.00,WeatherDisplay:10.37,2013-09-04 21:09:00,
2013-09-04 22:14:00,64.4,52.4,30.01,ESE,122,6.3,6.3,65,0.00,BKN,FEW,0.00,WeatherDisplay:10.37,2013-09-04 21:14:00,
2013-09-04 22:19:00,64.4,52.4,30.01,WSW,258,4.6,4.6,65,0.00,BKN,FEW,0.00,WeatherDisplay:10.37,2013-09-04 21:19:00,
2013-09-04 22:24:00,64.2,52.2,30.01,ESE,122,3.5,3.5,65,0.00,BKN,FEW,0.00,WeatherDisplay:10.37,2013-09-04 21:24:00,
2013-09-04 22:29:00,64.2,52.2,30.01,SE,145,2.3,2.3,65,0.00,BKN,FEW,0.00,WeatherDisplay:10.37,2013-09-04 21:29:00,
2013-09-04 22:34:00,64.0,52.0,30.01,SE,145,5.8,5.8,65,0.00,BKN,FEW,0.00,WeatherDisplay:10.37,2013-09-04 21:34:00,
2013-09-04 22:39:00,64.0,52.0,30.01,WSW,258,1.7,2.1,65,0.00,BKN,FEW,0.00,WeatherDisplay:10.37,2013-09-04 21:39:00,
2013-09-04 22:44:00,63.7,51.7,30.01,ESE,122,4.6,4.6,65,0.00,BKN,FEW,0.00,WeatherDisplay:10.37,2013-09-04 21:44:00,
2013-09-04 22:49:00,63.5,51.9,30.01,ESE,122,0.0,2.2,66,0.00,BKN,FEW,0.00,WeatherDisplay:10.37,2013-09-04 21:49:00,
2013-09-04 22:54:00,63.3,51.8,30.01,West,280,2.3,2.3,66,0.00,BKN,FEW,0.00,WeatherDisplay:10.37,2013-09-04 21:54:00,
2013-09-04 22:59:00,63.5,51.9,30.00,SE,145,4.6,4.6,66,0.00,BKN,FEW,0.00,WeatherDisplay:10.37,2013-09-04 21:59:00,
2013-09-04 23:04:00,63.1,52.0,30.00,ESE,122,1.2,1.2,67,0.00,BKN,FEW,0.00,WeatherDisplay:10.37,2013-09-04 22:04:00,
2013-09-04 23:09:00,63.1,52.0,30.00,West,280,2.3,2.3,67,0.00,BKN,FEW,0.00,WeatherDisplay:10.37,2013-09-04 22:09:00,
2013-09-04 23:14:00,62.8,52.1,30.00,ESE,122,1.3,1.3,68,0.00,BKN,FEW,0.00,WeatherDisplay:10.37,2013-09-04 22:14:00,
2013-09-04 23:19:00,62.8,52.1,30.00,ESE,122,0.0,0.4,68,0.00,BKN,FEW,0.00,WeatherDisplay:10.37,2013-09-04 22:19:00,
2013-09-04 23:24:00,62.4,51.7,30.00,SE,145,2.3,2.3,68,0.00,BKN,FEW,0.00,WeatherDisplay:10.37,2013-09-04 22:24:00,
2013-09-04 23:29:00,62.2,51.9,30.00,ESE,122,1.6,1.6,69,0.00,BKN,FEW,0.00,WeatherDisplay:10.37,2013-09-04 22:29:00,
2013-09-04 23:34:00,62.1,52.2,30.00,NW,325,1.2,1.2,70,0.00,BKN,FEW,0.00,WeatherDisplay:10.37,2013-09-04 22:34:00,
2013-09-04 23:39:00,62.1,52.2,30.00,NW,325,1.3,1.3,70,0.00,BKN,FEW,0.00,WeatherDisplay:10.37,2013-09-04 22:39:00,
2013-09-04 23:44:00,62.1,52.5,30.00,West,280,3.5,3.5,71,0.00,BKN,FEW,0.00,WeatherDisplay:10.37,2013-09-04 22:44:00,
2013-09-04 23:49:00,62.1,52.5,30.00,North,10,2.3,2.3,71,0.00,BKN,FEW,0.00,WeatherDisplay:10.37,2013-09-04 22:49:00,
2013-09-04 23:54:00,61.9,52.8,30.00,WSW,258,1.2,1.2,72,0.00,BKN,FEW,0.00,WeatherDisplay:10.37,2013-09-04 22:54:00,
2013-09-04 23:59:00,62.1,52.9,29.99,East,100,0.0,0.7,72,0.00,BKN,FEW,0.00,WeatherDisplay:10.37,2013-09-04 22:59:00,